No particular awareness of the weather is required.    There are no Weather-warnings


Meteo18 Weather Cam more information Meteo18 Weather Cam


Thunder radar more information blitzortung!


Rain radar more information rain snow radar


Visit our other weather sites:

Template documentation
and downloads

And another site



Weather Underground History page Text

Daily Summary for October 7, 2017 Units:  English    Metric   Both
« Previous Day
Next Day »
Daily Weekly Monthly Yearly Custom
  High: Low: Average:
Temperature: TemperatureC °F 2.2 °F 9.8 °F
Dew Point: DewpointC °F 1.6 °F 6.1 °F
Humidity: Humidity % 57 % 79 %
Wind Speed: WindSpeedKMH mph 0.0 mph 3.3 mph
Wind Gust: WindSpeedGustKMH mph - -
Wind:- - WSW
Pressure: PressurehPa in 1021.6 in -
Precipitation: 0.8 in    
Historical Graphs
 
 
Tabular Data for October 7, 2017
Time Temperature Dew Point Pressure Wind Wind Speed Wind Gust Humidity Rainfall Rate (Hourly)
TemperatureC °F DewpointC °F PressurehPa in Calm     Humidity % HourlyPrecipMM in
00:02 7.2 °F 5.7 °F 1028.7 in WNW 1.6 mph 1.6 mph 90 % 0.0 in
00:07 7.1 °F 5.7 °F 1028.7 in WNW 1.6 mph 3.2 mph 91 % 0.0 in
00:12 7.2 °F 6.0 °F 1028.7 in WNW 1.6 mph 3.2 mph 92 % 0.0 in
00:17 7.1 °F 5.9 °F 1028.7 in WNW 1.6 mph 3.2 mph 92 % 0.0 in
00:22 7.1 °F 5.9 °F 1028.7 in Calm   3.2 mph 92 % 0.0 in
00:27 7.0 °F 5.8 °F 1028.7 in WNW 1.6 mph 1.6 mph 92 % 0.0 in
00:32 6.9 °F 5.7 °F 1028.7 in Calm   1.6 mph 92 % 0.0 in
00:42 7.3 °F 6.2 °F 1028.7 in Calm   1.6 mph 93 % 0.0 in
00:47 7.4 °F 6.0 °F 1028.7 in Calm   1.6 mph 91 % 0.0 in
00:52 7.1 °F 5.6 °F 1028.7 in Calm   1.6 mph 90 % 0.0 in
00:57 7.1 °F 5.9 °F 1028.7 in Calm   1.6 mph 92 % 0.0 in
01:02 7.4 °F 6.2 °F 1028.7 in Calm   1.6 mph 92 % 0.0 in
01:07 7.5 °F 6.1 °F 1028.7 in Calm   1.6 mph 91 % 0.0 in
01:12 7.6 °F 6.1 °F 1028.7 in Calm   1.6 mph 90 % 0.0 in
01:17 7.4 °F 5.9 °F 1028.7 in Calm   1.6 mph 90 % 0.0 in
01:22 7.2 °F 5.7 °F 1028.7 in Calm     90 % 0.0 in
01:27 7.0 °F 5.5 °F 1028.7 in Calm     90 % 0.0 in
01:37 6.7 °F 5.3 °F 1028.7 in Calm     91 % 0.0 in
01:42 6.7 °F 5.5 °F 1028.7 in NW 1.6 mph   92 % 0.0 in
01:47 6.6 °F 5.5 °F 1029.0 in WNW 1.6 mph 1.6 mph 93 % 0.0 in
01:52 6.6 °F 5.5 °F 1029.0 in Calm   1.6 mph 93 % 0.0 in
01:57 6.3 °F 5.3 °F 1029.0 in Calm   1.6 mph 93 % 0.0 in
02:02 6.3 °F 5.3 °F 1029.0 in WNW 1.6 mph 1.6 mph 93 % 0.0 in
02:12 6.2 °F 5.3 °F 1029.3 in Calm   1.6 mph 94 % 0.0 in
02:17 6.2 °F 5.3 °F 1029.3 in Calm   1.6 mph 94 % 0.0 in
02:22 6.2 °F 5.3 °F 1029.3 in Calm   1.6 mph 94 % 0.0 in
02:27 6.2 °F 5.3 °F 1029.3 in Calm   1.6 mph 94 % 0.0 in
02:32 6.2 °F 5.3 °F 1029.3 in Calm   1.6 mph 94 % 0.0 in
02:37 6.1 °F 5.2 °F 1029.3 in Calm   1.6 mph 94 % 0.0 in
02:42 6.2 °F 5.3 °F 1029.3 in Calm   1.6 mph 94 % 0.0 in
02:47 6.2 °F 5.3 °F 1029.3 in Calm   1.6 mph 94 % 0.0 in
02:52 6.2 °F 5.3 °F 1029.3 in Calm   1.6 mph 94 % 0.0 in
02:57 6.2 °F 5.3 °F 1029.3 in Calm     94 % 0.0 in
03:02 6.0 °F 5.1 °F 1029.0 in Calm     94 % 0.0 in
03:07 5.9 °F 5.0 °F 1029.3 in Calm     94 % 0.0 in
03:12 5.9 °F 5.0 °F 1029.0 in Calm     94 % 0.0 in
03:17 5.9 °F 5.0 °F 1029.0 in Calm     94 % 0.0 in
03:22 5.9 °F 5.2 °F 1029.0 in Calm     95 % 0.0 in
03:27 5.8 °F 5.1 °F 1028.7 in Calm     95 % 0.0 in
03:32 5.8 °F 5.1 °F 1028.7 in Calm     95 % 0.0 in
03:37 5.6 °F 4.7 °F 1028.7 in Calm     94 % 0.0 in
03:42 5.3 °F 4.4 °F 1028.7 in Calm     94 % 0.0 in
03:47 5.2 °F 4.3 °F 1028.7 in Calm     94 % 0.0 in
03:52 5.2 °F 4.5 °F 1028.7 in Calm     95 % 0.0 in
03:57 5.1 °F 4.2 °F 1028.3 in Calm     94 % 0.0 in
04:02 5.1 °F 4.4 °F 1028.7 in Calm     95 % 0.0 in
04:07 5.0 °F 4.3 °F 1028.3 in Calm     95 % 0.0 in
04:12 4.8 °F 4.1 °F 1028.3 in Calm     95 % 0.0 in
04:17 4.8 °F 4.1 °F 1028.3 in Calm     95 % 0.0 in
04:22 4.8 °F 4.1 °F 1028.3 in Calm     95 % 0.0 in
04:27 4.7 °F 4.0 °F 1028.3 in Calm     95 % 0.0 in
04:32 4.7 °F 4.0 °F 1028.3 in Calm     95 % 0.0 in
04:37 4.6 °F 3.9 °F 1028.3 in Calm     95 % 0.0 in
04:47 4.3 °F 3.6 °F 1028.3 in Calm     95 % 0.0 in
04:52 4.3 °F 3.6 °F 1028.3 in Calm     95 % 0.0 in
04:57 4.4 °F 3.8 °F 1028.3 in Calm     96 % 0.0 in
05:02 4.7 °F 4.1 °F 1028.3 in Calm   1.6 mph 96 % 0.0 in
05:07 4.7 °F 4.1 °F 1028.3 in Calm   1.6 mph 96 % 0.0 in
05:17 4.4 °F 3.7 °F 1028.3 in Calm   1.6 mph 95 % 0.0 in
05:22 4.4 °F 3.8 °F 1028.0 in Calm     96 % 0.0 in
05:27 4.3 °F 3.7 °F 1028.3 in Calm     96 % 0.0 in
05:32 4.3 °F 3.7 °F 1028.0 in Calm     96 % 0.0 in
05:42 4.2 °F 3.6 °F 1028.0 in Calm     96 % 0.0 in
05:47 4.2 °F 3.6 °F 1027.7 in Calm     96 % 0.0 in
06:02 3.8 °F 3.2 °F 1028.0 in Calm   1.6 mph 96 % 0.0 in
06:07 3.9 °F 3.3 °F 1028.0 in Calm   1.6 mph 96 % 0.0 in
06:17 3.8 °F 3.2 °F 1028.0 in Calm     96 % 0.0 in
06:22 3.7 °F 3.1 °F 1028.0 in SSE 1.6 mph   96 % 0.0 in
06:32 2.8 °F 1.9 °F 1028.0 in SE 1.6 mph 3.2 mph 94 % 0.0 in
06:37 2.5 °F 1.8 °F 1028.0 in SSW 1.6 mph 3.2 mph 95 % 0.0 in
06:42 2.4 °F 1.7 °F 1027.7 in Calm   3.2 mph 95 % 0.0 in
06:47 2.3 °F 1.6 °F 1028.0 in Calm   3.2 mph 95 % 0.0 in
06:52 2.4 °F 1.8 °F 1028.0 in Calm   3.2 mph 96 % 0.0 in
06:57 2.4 °F 1.8 °F 1028.0 in Calm     96 % 0.0 in
07:02 2.5 °F 1.9 °F 1028.0 in Calm     96 % 0.0 in
07:07 2.5 °F 1.9 °F 1028.0 in Calm     96 % 0.0 in
07:12 2.5 °F 1.9 °F 1028.0 in Calm     96 % 0.0 in
07:17 2.6 °F 2.0 °F 1028.0 in Calm     96 % 0.0 in
07:22 2.7 °F 2.1 °F 1028.0 in Calm     96 % 0.0 in
07:32 2.6 °F 2.0 °F 1028.0 in Calm     96 % 0.0 in
07:37 2.7 °F 2.1 °F 1028.0 in Calm     96 % 0.0 in
07:42 2.6 °F 2.0 °F 1027.7 in Calm     96 % 0.0 in
07:47 2.4 °F 1.8 °F 1027.7 in Calm     96 % 0.0 in
07:52 2.3 °F 1.7 °F 1028.0 in Calm     96 % 0.0 in
07:57 2.2 °F 1.6 °F 1028.0 in Calm     96 % 0.0 in
08:02 2.3 °F 1.7 °F 1028.0 in Calm     96 % 0.0 in
08:07 2.3 °F 1.7 °F 1028.0 in Calm     96 % 0.0 in
08:12 2.4 °F 1.8 °F 1028.0 in Calm     96 % 0.0 in
08:17 2.5 °F 1.9 °F 1028.0 in Calm     96 % 0.0 in
08:22 2.6 °F 2.0 °F 1028.0 in Calm     96 % 0.3 in
08:27 2.7 °F 2.1 °F 1028.0 in Calm     96 % 0.3 in
08:32 3.1 °F 2.5 °F 1028.0 in Calm     96 % 0.3 in
08:42 3.3 °F 2.7 °F 1028.0 in Calm     96 % 0.3 in
08:47 3.7 °F 3.3 °F 1028.0 in Calm     97 % 0.3 in
08:52 4.1 °F 3.7 °F 1028.0 in Calm     97 % 0.3 in
08:57 4.4 °F 4.0 °F 1028.0 in Calm     97 % 0.3 in
09:02 4.6 °F 4.2 °F 1028.3 in Calm     97 % 0.3 in
09:12 5.1 °F 4.7 °F 1028.0 in Calm   1.6 mph 97 % 0.3 in
09:17 5.7 °F 5.3 °F 1028.0 in Calm   1.6 mph 97 % 0.0 in
09:27 5.7 °F 5.0 °F 1028.0 in Calm   1.6 mph 95 % 0.0 in
09:32 5.6 °F 4.7 °F 1028.0 in Calm   1.6 mph 94 % 0.0 in
09:37 5.7 °F 5.0 °F 1028.0 in Calm   1.6 mph 95 % 0.0 in
09:42 6.1 °F 5.4 °F 1028.0 in Calm   1.6 mph 95 % 0.0 in
09:47 6.6 °F 6.0 °F 1028.0 in Calm     96 % 0.0 in
09:52 6.7 °F 6.0 °F 1028.0 in SSE 1.6 mph 1.6 mph 95 % 0.0 in
09:57 6.7 °F 5.8 °F 1028.0 in SE 1.6 mph 3.2 mph 94 % 0.0 in
10:02 6.9 °F 6.0 °F 1028.0 in SSE 1.6 mph 4.8 mph 94 % 0.0 in
10:07 7.1 °F 6.2 °F 1027.7 in South 3.2 mph 4.8 mph 94 % 0.0 in
10:12 7.2 °F 6.3 °F 1027.7 in Calm   4.8 mph 94 % 0.0 in
10:17 7.6 °F 6.7 °F 1027.7 in Calm   4.8 mph 94 % 0.0 in
10:22 7.9 °F 7.0 °F 1027.7 in Calm   4.8 mph 94 % 0.0 in
10:27 8.4 °F 7.5 °F 1027.7 in SE 1.6 mph 4.8 mph 94 % 0.0 in
10:32 8.9 °F 7.8 °F 1027.7 in WSW 1.6 mph 3.2 mph 93 % 0.0 in
10:42 9.3 °F 7.9 °F 1027.7 in SW 3.2 mph 6.4 mph 91 % 0.0 in
10:52 9.8 °F 8.2 °F 1027.7 in ESE 4.8 mph 6.4 mph 90 % 0.0 in
10:57 9.9 °F 8.2 °F 1027.7 in SW 3.2 mph 6.4 mph 89 % 0.0 in
11:02 10.2 °F 8.6 °F 1027.7 in South 3.2 mph 6.4 mph 90 % 0.0 in
11:07 10.6 °F 8.7 °F 1027.7 in SSW 4.8 mph 6.4 mph 88 % 0.0 in
11:12 10.9 °F 8.6 °F 1027.7 in South 6.4 mph 9.7 mph 86 % 0.0 in
11:17 11.1 °F 8.8 °F 1027.7 in SSW 3.2 mph 12.9 mph 86 % 0.0 in
11:22 11.6 °F 8.8 °F 1027.3 in SW 8.0 mph 12.9 mph 83 % 0.0 in
11:32 11.8 °F 8.3 °F 1027.3 in SW 9.7 mph 14.5 mph 79 % 0.0 in
11:42 12.3 °F 8.2 °F 1027.3 in SW 9.7 mph 12.9 mph 76 % 0.0 in
11:52 12.4 °F 8.1 °F 1027.3 in South 4.8 mph 14.5 mph 75 % 0.0 in
11:57 12.7 °F 8.4 °F 1027.3 in SSW 4.8 mph 14.5 mph 75 % 0.0 in
12:02 12.9 °F 8.4 °F 1027.3 in SSW 4.8 mph 14.5 mph 74 % 0.0 in
12:07 12.8 °F 8.1 °F 1027.0 in SW 3.2 mph 14.5 mph 73 % 0.0 in
12:12 12.9 °F 7.3 °F 1027.0 in SW 16.1 mph 17.7 mph 69 % 0.0 in
12:17 13.0 °F 7.4 °F 1027.0 in SW 9.7 mph 17.7 mph 69 % 0.0 in
12:22 13.1 °F 7.8 °F 1027.0 in SW 4.8 mph 16.1 mph 70 % 0.0 in
12:32 13.3 °F 7.7 °F 1027.0 in SW 9.7 mph 16.1 mph 69 % 0.0 in
12:42 13.4 °F 7.4 °F 1026.6 in WSW 8.0 mph 17.7 mph 67 % 0.0 in
12:47 13.4 °F 7.4 °F 1026.6 in SW 12.9 mph 17.7 mph 67 % 0.0 in
12:52 13.5 °F 7.9 °F 1026.6 in SW 6.4 mph 17.7 mph 69 % 0.0 in
12:57 13.5 °F 7.5 °F 1026.6 in SW 11.3 mph 17.7 mph 67 % 0.0 in
13:02 13.6 °F 7.6 °F 1026.6 in WSW 14.5 mph 17.7 mph 67 % 0.0 in
13:07 13.7 °F 7.9 °F 1026.3 in SW 6.4 mph 17.7 mph 68 % 0.0 in
13:12 13.9 °F 8.1 °F 1026.3 in WSW 12.9 mph 17.7 mph 68 % 0.0 in
13:17 13.8 °F 7.3 °F 1026.3 in WSW 3.2 mph 17.7 mph 65 % 0.0 in
13:22 13.9 °F 7.4 °F 1026.3 in WNW 6.4 mph 16.1 mph 65 % 0.0 in
13:32 14.1 °F 7.2 °F 1026.3 in SW 8.0 mph 14.5 mph 63 % 0.0 in
13:37 14.1 °F 7.2 °F 1026.3 in West 4.8 mph 14.5 mph 63 % 0.0 in
13:42 14.1 °F 7.6 °F 1026.0 in WSW 4.8 mph 12.9 mph 65 % 0.0 in
13:47 14.1 °F 7.2 °F 1026.0 in SSW 3.2 mph 19.3 mph 63 % 0.0 in
13:52 14.1 °F 7.2 °F 1026.0 in West 6.4 mph 19.3 mph 63 % 0.0 in
13:57 14.1 °F 7.2 °F 1026.0 in West 11.3 mph 19.3 mph 63 % 0.0 in
14:07 14.1 °F 7.4 °F 1026.0 in WSW 6.4 mph 17.7 mph 64 % 0.0 in
14:12 14.1 °F 7.4 °F 1026.0 in WSW 11.3 mph 17.7 mph 64 % 0.0 in
14:17 14.1 °F 7.2 °F 1025.6 in WSW 8.0 mph 17.7 mph 63 % 0.0 in
14:22 14.1 °F 7.2 °F 1025.6 in West 8.0 mph 17.7 mph 63 % 0.0 in
14:27 14.3 °F 6.9 °F 1025.6 in WSW 8.0 mph 17.7 mph 61 % 0.0 in
14:32 14.5 °F 7.3 °F 1025.3 in SW 9.7 mph 16.1 mph 62 % 0.0 in
14:37 14.6 °F 6.9 °F 1025.3 in SW 11.3 mph 16.1 mph 60 % 0.0 in
14:42 14.8 °F 7.1 °F 1025.3 in WSW 8.0 mph 16.1 mph 60 % 0.0 in
14:47 14.9 °F 7.0 °F 1025.3 in WSW 8.0 mph 16.1 mph 59 % 0.0 in
14:52 15.0 °F 7.5 °F 1025.3 in WSW 8.0 mph 16.1 mph 61 % 0.0 in
14:57 14.8 °F 6.9 °F 1025.3 in West 3.2 mph 20.9 mph 59 % 0.0 in
15:02 14.8 °F 7.1 °F 1024.9 in SW 12.9 mph 20.9 mph 60 % 0.0 in
15:07 14.9 °F 7.2 °F 1024.9 in WSW 8.0 mph 20.9 mph 60 % 0.0 in
15:12 15.1 °F 7.1 °F 1024.9 in West 8.0 mph 19.3 mph 59 % 0.0 in
15:17 15.3 °F 7.3 °F 1024.9 in WSW 6.4 mph 19.3 mph 59 % 0.0 in
15:27 15.1 °F 7.1 °F 1024.6 in SSW 6.4 mph 19.3 mph 59 % 0.0 in
15:32 15.2 °F 7.2 °F 1024.6 in West 9.7 mph 19.3 mph 59 % 0.0 in
15:37 15.2 °F 7.7 °F 1024.6 in West 4.8 mph 19.3 mph 61 % 0.0 in
15:42 15.2 °F 7.7 °F 1024.6 in SW 6.4 mph 17.7 mph 61 % 0.0 in
15:47 15.3 °F 8.1 °F 1024.3 in WSW 11.3 mph 16.1 mph 62 % 0.0 in
15:52 15.3 °F 8.1 °F 1024.3 in SW 14.5 mph 14.5 mph 62 % 0.0 in
15:57 15.2 °F 8.0 °F 1024.3 in WSW 8.0 mph 14.5 mph 62 % 0.0 in
16:02 15.2 °F 8.0 °F 1024.3 in West 4.8 mph 14.5 mph 62 % 0.0 in
16:07 15.4 °F 7.9 °F 1024.3 in SW 8.0 mph 14.5 mph 61 % 0.0 in
16:12 15.5 °F 7.5 °F 1023.9 in Calm   17.7 mph 59 % 0.0 in
16:17 15.7 °F 7.5 °F 1023.9 in WSW 12.9 mph 17.7 mph 58 % 0.0 in
16:22 15.5 °F 7.3 °F 1023.9 in West 11.3 mph 19.3 mph 58 % 0.0 in
16:27 15.5 °F 7.3 °F 1023.9 in WSW 12.9 mph 19.3 mph 58 % 0.0 in
16:37 15.4 °F 7.2 °F 1023.6 in SW 14.5 mph 17.7 mph 58 % 0.0 in
16:42 15.3 °F 6.8 °F 1023.2 in West 9.7 mph 19.3 mph 57 % 0.0 in
16:47 15.3 °F 7.1 °F 1023.2 in SW 6.4 mph 19.3 mph 58 % 0.0 in
16:52 15.4 °F 7.2 °F 1023.2 in SW 3.2 mph 19.3 mph 58 % 0.0 in
16:57 15.5 °F 7.0 °F 1023.2 in SW 14.5 mph 19.3 mph 57 % 0.0 in
17:02 15.4 °F 6.9 °F 1023.2 in WSW 16.1 mph 19.3 mph 57 % 0.0 in
17:07 15.3 °F 7.1 °F 1023.2 in West 12.9 mph 19.3 mph 58 % 0.0 in
17:12 15.2 °F 7.2 °F 1023.2 in WSW 11.3 mph 19.3 mph 59 % 0.0 in
17:17 15.2 °F 7.7 °F 1023.2 in SW 3.2 mph 17.7 mph 61 % 0.0 in
17:22 15.1 °F 7.1 °F 1023.2 in WSW 9.7 mph 17.7 mph 59 % 0.0 in
17:27 15.1 °F 7.4 °F 1023.2 in WSW 4.8 mph 16.1 mph 60 % 0.0 in
17:32 15.1 °F 7.1 °F 1023.2 in WNW 6.4 mph 12.9 mph 59 % 0.0 in
17:37 15.0 °F 6.8 °F 1023.2 in West 8.0 mph 16.1 mph 58 % 0.0 in
17:42 15.1 °F 7.1 °F 1023.2 in WSW 4.8 mph 16.1 mph 59 % 0.0 in
17:47 15.2 °F 7.5 °F 1023.2 in West 4.8 mph 16.1 mph 60 % 0.0 in
17:52 15.1 °F 7.4 °F 1023.2 in West 4.8 mph 12.9 mph 60 % 0.0 in
17:57 15.0 °F 7.3 °F 1023.2 in WSW 11.3 mph 12.9 mph 60 % 0.0 in
18:02 14.9 °F 7.4 °F 1022.9 in West 4.8 mph 14.5 mph 61 % 0.0 in
18:07 14.9 °F 7.4 °F 1022.9 in SW 3.2 mph 14.5 mph 61 % 0.0 in
18:12 14.9 °F 7.4 °F 1022.9 in WSW 6.4 mph 14.5 mph 61 % 0.0 in
18:17 14.7 °F 7.3 °F 1022.6 in WSW 3.2 mph 12.9 mph 61 % 0.0 in
18:22 14.7 °F 7.5 °F 1022.6 in West 8.0 mph 12.9 mph 62 % 0.0 in
18:32 14.6 °F 7.4 °F 1022.6 in WSW 4.8 mph 14.5 mph 62 % 0.0 in
18:42 14.6 °F 7.4 °F 1022.2 in SW 6.4 mph 11.3 mph 62 % 0.0 in
18:47 14.6 °F 7.4 °F 1022.2 in SW 3.2 mph 9.7 mph 62 % 0.0 in
18:52 14.5 °F 7.5 °F 1022.6 in West 4.8 mph 9.7 mph 63 % 0.0 in
18:57 14.3 °F 7.6 °F 1022.6 in West 3.2 mph 9.7 mph 64 % 0.0 in
19:02 14.1 °F 7.6 °F 1022.6 in SW 3.2 mph 9.7 mph 65 % 0.0 in
19:07 14.0 °F 7.5 °F 1022.6 in West 3.2 mph 9.7 mph 65 % 0.0 in
19:12 13.8 °F 7.3 °F 1022.6 in West 3.2 mph 8.0 mph 65 % 0.0 in
19:17 13.7 °F 7.5 °F 1022.6 in SW 3.2 mph 8.0 mph 66 % 0.0 in
19:22 13.6 °F 7.4 °F 1022.6 in West 4.8 mph 8.0 mph 66 % 0.0 in
19:27 13.6 °F 7.4 °F 1022.6 in WSW 4.8 mph 9.7 mph 66 % 0.0 in
19:32 13.5 °F 7.5 °F 1022.6 in SW 4.8 mph 9.7 mph 67 % 0.0 in
19:37 13.4 °F 7.4 °F 1022.9 in West 4.8 mph 9.7 mph 67 % 0.0 in
19:42 13.4 °F 7.4 °F 1022.6 in WSW 6.4 mph 8.0 mph 67 % 0.0 in
19:52 13.4 °F 7.4 °F 1022.6 in SW 1.6 mph 8.0 mph 67 % 0.0 in
19:57 13.2 °F 7.4 °F 1022.6 in Calm   8.0 mph 68 % 0.0 in
20:02 13.0 °F 7.4 °F 1022.6 in Calm   6.4 mph 69 % 0.0 in
20:07 12.9 °F 7.6 °F 1022.6 in Calm   4.8 mph 70 % 0.0 in
20:17 12.9 °F 7.6 °F 1022.6 in Calm   3.2 mph 70 % 0.0 in
20:22 12.8 °F 7.7 °F 1022.2 in SW 1.6 mph 3.2 mph 71 % 0.0 in
20:27 12.7 °F 7.6 °F 1022.2 in Calm   6.4 mph 71 % 0.0 in
20:32 12.6 °F 7.5 °F 1022.2 in WSW 1.6 mph 6.4 mph 71 % 0.0 in
20:37 12.6 °F 7.5 °F 1022.2 in Calm   6.4 mph 71 % 0.0 in
20:42 12.4 °F 7.5 °F 1022.2 in Calm   4.8 mph 72 % 0.0 in
20:47 12.2 °F 7.5 °F 1022.2 in Calm   4.8 mph 73 % 0.0 in
20:52 12.1 °F 7.6 °F 1022.2 in Calm   3.2 mph 74 % 0.0 in
20:57 11.8 °F 7.7 °F 1022.2 in Calm   1.6 mph 76 % 0.0 in
21:02 11.6 °F 7.7 °F 1022.2 in Calm     77 % 0.0 in
21:07 11.6 °F 7.5 °F 1022.2 in Calm   1.6 mph 76 % 0.0 in
21:12 11.7 °F 7.6 °F 1022.2 in Calm   1.6 mph 76 % 0.0 in
21:17 11.7 °F 7.6 °F 1022.2 in Calm   1.6 mph 76 % 0.0 in
21:22 11.7 °F 7.6 °F 1021.9 in Calm   1.6 mph 76 % 0.0 in
21:27 11.7 °F 7.6 °F 1021.9 in ESE 1.6 mph 1.6 mph 76 % 0.0 in
21:32 11.6 °F 7.5 °F 1021.9 in SSE 1.6 mph 1.6 mph 76 % 0.0 in
21:37 11.6 °F 7.5 °F 1021.9 in SE 1.6 mph 1.6 mph 76 % 0.0 in
21:42 11.6 °F 7.5 °F 1021.9 in SSE 1.6 mph 3.2 mph 76 % 0.0 in
21:57 11.9 °F 7.4 °F 1021.6 in SW 3.2 mph 9.7 mph 74 % 0.0 in
22:02 12.1 °F 7.6 °F 1021.6 in WSW 9.7 mph 9.7 mph 74 % 0.0 in
22:07 12.2 °F 7.5 °F 1021.6 in WSW 6.4 mph 11.3 mph 73 % 0.0 in
22:12 12.2 °F 7.5 °F 1021.6 in SW 6.4 mph 12.9 mph 73 % 0.0 in
22:17 12.2 °F 7.5 °F 1021.9 in WSW 6.4 mph 12.9 mph 73 % 0.0 in
22:22 12.2 °F 7.5 °F 1021.9 in West 1.6 mph 12.9 mph 73 % 0.0 in
22:32 12.3 °F 7.6 °F 1021.6 in WSW 4.8 mph 12.9 mph 73 % 0.0 in
22:37 12.4 °F 7.7 °F 1021.6 in WSW 4.8 mph 11.3 mph 73 % 0.0 in
22:42 12.4 °F 7.7 °F 1021.6 in WSW 6.4 mph 12.9 mph 73 % 0.0 in
22:47 12.4 °F 7.7 °F 1021.9 in West 3.2 mph 14.5 mph 73 % 0.0 in
22:52 12.4 °F 7.7 °F 1021.6 in SW 3.2 mph 14.5 mph 73 % 0.0 in
22:57 12.5 °F 7.6 °F 1021.6 in WSW 3.2 mph 9.7 mph 72 % 0.0 in
23:02 12.6 °F 7.7 °F 1021.6 in WSW 8.0 mph 11.3 mph 72 % 0.0 in
23:07 12.5 °F 7.6 °F 1021.6 in SW 4.8 mph 11.3 mph 72 % 0.0 in
23:12 12.4 °F 7.7 °F 1021.6 in WSW 4.8 mph 11.3 mph 73 % 0.0 in
23:17 12.3 °F 7.6 °F 1021.9 in SW 3.2 mph 11.3 mph 73 % 0.0 in
23:22 12.2 °F 7.7 °F 1021.9 in WSW 3.2 mph 11.3 mph 74 % 0.0 in
23:27 12.2 °F 7.7 °F 1021.9 in West 1.6 mph 8.0 mph 74 % 0.0 in
23:32 12.2 °F 7.7 °F 1021.9 in WSW 4.8 mph 9.7 mph 74 % 0.0 in
23:37 12.2 °F 7.7 °F 1021.9 in SW 8.0 mph 14.5 mph 74 % 0.0 in
23:42 12.2 °F 7.7 °F 1021.6 in West 4.8 mph 14.5 mph 74 % 0.0 in
23:47 12.2 °F 7.9 °F 1021.9 in WNW 8.0 mph 14.5 mph 75 % 0.0 in
23:52 11.9 °F 8.0 °F 1021.9 in WNW 1.6 mph 11.3 mph 77 % 0.5 in
23:57 11.7 °F 8.2 °F 1021.9 in Calm   11.3 mph 79 % 0.5 in
Meteo18
Compliments of Weather Underground - 4 mb

Script developed by  Jim McMurry - jmcmurry@mwt.net Adapted for the template by  Wim van der Kuil - Leuven-Template.eu

You find our weather info also at:

European Weather Network

Weather Underground

Equipment we use:

Weather-station
Davis Vue

Weather-program
Meteobridge

Weather-server
Raspberry PI 2 B+

Provider
1 and 1

Davis Vue

Meteobridge

Raspberry PI 2 B+

1 and 1